createdAt,value
2022-09-21T00:01:06.568Z,15.50
2022-09-21T00:06:12.942Z,15.50
2022-09-21T00:11:18.644Z,15.40
2022-09-21T00:16:21.306Z,15.40
2022-09-21T00:21:24.487Z,15.40
2022-09-21T00:26:27.890Z,15.40
2022-09-21T00:31:31.450Z,15.30
2022-09-21T00:36:34.546Z,15.40
2022-09-21T00:41:36.787Z,15.30
2022-09-21T00:46:40.318Z,15.20
2022-09-21T00:51:43.041Z,15.10
2022-09-21T00:56:45.576Z,15.10
2022-09-21T01:01:48.337Z,15.10
2022-09-21T01:06:50.899Z,15.10
2022-09-21T01:28:21.590Z,15.00
2022-09-21T01:33:32.490Z,15.00
2022-09-21T01:38:43.435Z,15.00
2022-09-21T01:43:52.903Z,15.00
2022-09-21T01:49:00.035Z,15.00
2022-09-21T01:54:09.084Z,14.90
2022-09-21T01:59:28.181Z,14.90
2022-09-21T02:04:31.247Z,14.80
2022-09-21T02:09:35.481Z,14.80
2022-09-21T02:14:38.535Z,14.70
2022-09-21T02:19:49.362Z,14.70
2022-09-21T02:24:57.891Z,14.50
2022-09-21T02:35:42.391Z,14.60
2022-09-21T02:40:56.840Z,14.60
2022-09-21T02:46:15.303Z,14.50
2022-09-21T02:51:23.131Z,14.50
2022-09-21T02:56:26.800Z,14.40
2022-09-21T03:01:29.646Z,14.30
2022-09-21T03:06:31.990Z,14.30
2022-09-21T03:11:36.135Z,14.30
2022-09-21T03:16:38.984Z,14.10
2022-09-21T03:21:44.614Z,14.10
2022-09-21T03:26:47.254Z,14.10
2022-09-21T03:31:49.426Z,14.10
2022-09-21T03:36:51.993Z,14.00
2022-09-21T03:41:56.994Z,14.00
2022-09-21T03:46:59.241Z,14.10
2022-09-21T03:52:02.243Z,14.10
2022-09-21T03:57:04.658Z,14.00
2022-09-21T04:02:06.843Z,14.00
2022-09-21T04:07:09.180Z,13.90
2022-09-21T04:12:11.442Z,13.70
2022-09-21T04:17:13.832Z,13.90
2022-09-21T04:22:16.034Z,13.90
2022-09-21T04:27:18.343Z,13.90
2022-09-21T04:32:20.871Z,13.90
2022-09-21T04:37:23.425Z,13.90
2022-09-21T04:42:26.014Z,13.90
2022-09-21T04:47:30.756Z,14.00
2022-09-21T04:52:33.039Z,14.00
2022-09-21T04:57:35.866Z,14.00
2022-09-21T05:02:38.098Z,14.00
2022-09-21T05:07:40.344Z,14.10
2022-09-21T05:12:43.406Z,14.10
2022-09-21T05:17:46.726Z,14.10
2022-09-21T05:22:48.959Z,14.20
2022-09-21T05:27:51.256Z,14.30
2022-09-21T05:33:03.803Z,14.50
2022-09-21T05:38:15.877Z,14.60
2022-09-21T05:43:18.435Z,14.90
2022-09-21T05:48:27.084Z,15.10
2022-09-21T06:04:38.791Z,15.60
2022-09-21T06:09:43.217Z,15.90
2022-09-21T06:14:45.860Z,16.10
2022-09-21T06:19:48.093Z,16.30
2022-09-21T06:24:50.338Z,16.50
2022-09-21T06:29:53.133Z,16.80
2022-09-21T06:34:55.376Z,17.80
2022-09-21T06:39:57.558Z,19.30
2022-09-21T06:44:59.744Z,20.20
2022-09-21T06:50:02.020Z,22.30
2022-09-21T06:55:04.589Z,25.80
2022-09-21T07:00:09.380Z,28.40
2022-09-21T07:05:12.243Z,30.20
2022-09-21T07:10:19.928Z,31.30
2022-09-21T07:15:23.743Z,32.40
2022-09-21T07:20:26.012Z,33.40
2022-09-21T07:25:29.129Z,33.90
2022-09-21T07:30:31.379Z,34.30
2022-09-21T07:35:34.202Z,33.80
2022-09-21T07:40:36.524Z,33.30
2022-09-21T07:45:38.915Z,32.40
2022-09-21T07:50:42.161Z,33.20
2022-09-21T07:55:45.163Z,34.00
2022-09-21T08:00:47.399Z,35.10
2022-09-21T08:05:49.692Z,35.90
2022-09-21T08:10:54.588Z,35.70
2022-09-21T08:15:59.994Z,34.60
2022-09-21T08:21:02.283Z,32.90
2022-09-21T08:26:06.802Z,31.80
2022-09-21T08:31:10.781Z,31.20
2022-09-21T08:36:13.377Z,30.70
2022-09-21T08:46:29.077Z,29.60
2022-09-21T08:51:35.467Z,27.80
2022-09-21T08:57:03.524Z,26.90
2022-09-21T09:02:31.435Z,26.60
2022-09-21T09:08:13.504Z,26.40
2022-09-21T09:18:44.472Z,25.80
2022-09-21T09:23:54.250Z,24.50
2022-09-21T09:29:04.752Z,23.50
2022-09-21T09:34:29.434Z,22.30
2022-09-21T09:39:32.144Z,21.60
2022-09-21T09:50:06.929Z,21.90
2022-09-21T09:55:34.240Z,22.10
2022-09-21T10:00:36.521Z,21.20
2022-09-21T10:05:38.732Z,20.30
2022-09-21T10:10:41.894Z,19.70
2022-09-21T10:15:50.472Z,19.50
2022-09-21T10:26:11.019Z,19.50
2022-09-21T10:36:28.632Z,18.80
2022-09-21T10:41:30.939Z,18.40
2022-09-21T10:46:35.411Z,18.40
2022-09-21T10:51:37.807Z,18.60
2022-09-21T10:56:53.179Z,18.60
2022-09-21T11:01:57.983Z,18.50
2022-09-21T11:17:52.995Z,18.10
2022-09-21T11:23:20.670Z,17.90
2022-09-21T11:28:40.886Z,17.70
2022-09-21T11:34:13.850Z,17.90
2022-09-21T11:45:06.905Z,17.30
2022-09-21T12:01:12.169Z,17.30
2022-09-21T12:06:41.559Z,16.50
2022-09-21T12:11:51.100Z,16.00
2022-09-21T12:38:23.549Z,15.40
2022-09-21T12:43:39.611Z,15.80
2022-09-21T12:48:45.179Z,16.20
2022-09-21T12:53:51.284Z,16.40
2022-09-21T13:09:46.916Z,16.50
2022-09-21T13:14:52.594Z,15.30
2022-09-21T13:30:32.584Z,13.90
2022-09-21T13:41:45.533Z,14.70
2022-09-21T13:46:52.475Z,15.10
2022-09-21T14:02:54.891Z,16.20
2022-09-21T14:08:02.303Z,16.30
2022-09-21T14:13:23.305Z,16.70
2022-09-21T14:18:37.483Z,16.80
2022-09-21T14:23:40.198Z,16.90
2022-09-21T14:28:47.394Z,17.30
2022-09-21T14:33:55.087Z,17.50
2022-09-21T14:39:02.770Z,17.80
2022-09-21T14:44:05.577Z,17.80
2022-09-21T14:49:47.606Z,17.90
2022-09-21T15:21:29.346Z,17.80
2022-09-21T15:26:34.531Z,17.70
2022-09-21T15:31:40.020Z,17.60
2022-09-21T15:36:43.641Z,17.60
2022-09-21T15:41:49.955Z,17.60
2022-09-21T15:47:00.342Z,17.40
2022-09-21T15:52:13.010Z,17.20
2022-09-21T15:57:39.131Z,16.90
2022-09-21T16:02:50.814Z,16.90
2022-09-21T16:08:07.641Z,16.80
2022-09-21T16:13:42.846Z,16.80
2022-09-21T16:24:36.758Z,16.60
2022-09-21T16:29:43.086Z,16.30
2022-09-21T16:34:48.287Z,16.40
2022-09-21T16:39:55.050Z,16.50
2022-09-21T16:44:57.923Z,16.40
2022-09-21T16:50:01.851Z,16.30
2022-09-21T16:55:04.350Z,16.40
2022-09-21T17:00:21.994Z,16.40
2022-09-21T17:05:24.787Z,16.50
2022-09-21T17:10:32.493Z,16.40
2022-09-21T17:15:36.410Z,16.50
2022-09-21T17:20:42.619Z,16.50
2022-09-21T17:25:45.716Z,16.50
2022-09-21T17:30:48.492Z,16.40
2022-09-21T17:35:55.733Z,16.40
2022-09-21T17:41:01.332Z,16.40
2022-09-21T17:51:36.254Z,16.40
2022-09-21T17:56:47.624Z,16.00
2022-09-21T18:01:50.160Z,15.90
2022-09-21T18:06:53.564Z,16.00
2022-09-21T18:12:29.310Z,16.00
2022-09-21T18:17:52.342Z,15.90
2022-09-21T18:28:17.532Z,15.80
2022-09-21T18:38:44.538Z,15.70
2022-09-21T18:54:20.274Z,15.70
2022-09-21T18:59:23.118Z,15.80
2022-09-21T19:04:26.252Z,15.80
2022-09-21T19:30:49.177Z,15.90
2022-09-21T19:35:52.160Z,16.00
2022-09-21T19:41:00.880Z,15.90
2022-09-21T19:51:19.838Z,15.90
2022-09-21T19:56:42.466Z,15.90
2022-09-21T20:01:53.681Z,15.90
2022-09-21T20:07:03.287Z,16.00
2022-09-21T20:12:21.215Z,16.00
2022-09-21T20:17:47.507Z,16.00
2022-09-21T20:22:50.270Z,16.00
2022-09-21T20:33:07.616Z,16.00
2022-09-21T20:38:10.896Z,16.00
2022-09-21T20:43:14.253Z,16.00
2022-09-21T20:48:16.829Z,15.90
2022-09-21T20:53:19.636Z,16.00
2022-09-21T20:58:22.166Z,15.90
2022-09-21T21:03:24.449Z,15.90
2022-09-21T21:08:26.711Z,15.90
2022-09-21T21:13:30.284Z,15.80
2022-09-21T21:18:32.542Z,15.70
2022-09-21T21:23:55.071Z,15.70
2022-09-21T21:28:57.617Z,15.60
2022-09-21T21:33:59.950Z,15.60
2022-09-21T21:39:02.147Z,15.50
2022-09-21T21:44:04.511Z,15.50
2022-09-21T21:49:07.131Z,15.50
2022-09-21T21:54:09.344Z,15.40
2022-09-21T21:59:17.458Z,15.30
2022-09-21T22:04:24.431Z,15.30
2022-09-21T22:09:29.310Z,15.20
2022-09-21T22:14:31.844Z,15.20
2022-09-21T22:19:34.248Z,15.10
2022-09-21T22:24:36.618Z,15.00
2022-09-21T22:29:39.622Z,15.00
2022-09-21T22:34:41.866Z,14.90
2022-09-21T22:39:44.083Z,14.80
2022-09-21T22:44:46.283Z,14.70
2022-09-21T22:49:48.506Z,14.60
2022-09-21T22:54:50.671Z,14.50
2022-09-21T22:59:52.872Z,14.40
2022-09-21T23:04:55.508Z,14.30
2022-09-21T23:09:57.765Z,14.20
2022-09-21T23:15:00.006Z,14.30
2022-09-21T23:20:02.839Z,14.20
2022-09-21T23:25:06.312Z,14.10
2022-09-21T23:30:09.071Z,14.10
2022-09-21T23:35:11.260Z,14.00
2022-09-21T23:40:13.554Z,14.10
2022-09-21T23:45:15.923Z,14.00
2022-09-21T23:50:18.156Z,13.90
2022-09-21T23:55:20.319Z,13.90
